sensor_id;sensor_type;location;lat;lon;timestamp;pressure;altitude;pressure_sealevel;temperature;humidity
22653;BME280;11493;43.344;26.226;2023-04-28T00:00:35;99565.34;;;9.22;100.00
22653;BME280;11493;43.344;26.226;2023-04-28T00:03:02;99577.88;;;9.29;97.58
22653;BME280;11493;43.344;26.226;2023-04-28T00:05:29;99580.28;;;9.16;98.11
22653;BME280;11493;43.344;26.226;2023-04-28T00:07:56;99580.13;;;9.08;95.87
22653;BME280;11493;43.344;26.226;2023-04-28T00:10:23;99592.28;;;9.20;91.22
22653;BME280;11493;43.344;26.226;2023-04-28T00:12:50;99609.13;;;9.14;90.61
22653;BME280;11493;43.344;26.226;2023-04-28T00:15:17;99574.72;;;9.03;90.87
22653;BME280;11493;43.344;26.226;2023-04-28T00:17:44;99605.66;;;9.08;88.45
22653;BME280;11493;43.344;26.226;2023-04-28T00:20:13;99594.56;;;8.81;92.46
22653;BME280;11493;43.344;26.226;2023-04-28T00:22:40;99599.59;;;8.74;93.81
22653;BME280;11493;43.344;26.226;2023-04-28T00:25:07;99618.22;;;8.77;91.96
22653;BME280;11493;43.344;26.226;2023-04-28T00:27:35;99604.94;;;8.65;92.51
22653;BME280;11493;43.344;26.226;2023-04-28T00:30:02;99619.81;;;8.59;94.21
22653;BME280;11493;43.344;26.226;2023-04-28T00:32:29;99615.22;;;8.54;93.01
22653;BME280;11493;43.344;26.226;2023-04-28T00:34:56;99620.31;;;8.42;94.05
22653;BME280;11493;43.344;26.226;2023-04-28T00:37:23;99611.91;;;8.34;94.41
22653;BME280;11493;43.344;26.226;2023-04-28T00:39:57;99610.59;;;8.26;98.65
22653;BME280;11493;43.344;26.226;2023-04-28T00:42:24;99609.28;;;8.23;100.00
22653;BME280;11493;43.344;26.226;2023-04-28T00:44:51;99600.81;;;8.20;100.00
22653;BME280;11493;43.344;26.226;2023-04-28T00:47:19;99608.97;;;8.25;100.00
22653;BME280;11493;43.344;26.226;2023-04-28T00:49:46;99610.09;;;8.24;100.00
22653;BME280;11493;43.344;26.226;2023-04-28T00:52:15;99601.09;;;8.18;99.57
22653;BME280;11493;43.344;26.226;2023-04-28T00:54:42;99617.72;;;8.27;99.55
22653;BME280;11493;43.344;26.226;2023-04-28T00:57:09;99619.88;;;8.30;98.95
22653;BME280;11493;43.344;26.226;2023-04-28T00:59:36;99612.38;;;8.41;97.62
22653;BME280;11493;43.344;26.226;2023-04-28T01:02:04;99618.22;;;8.34;100.00
22653;BME280;11493;43.344;26.226;2023-04-28T01:04:32;99610.38;;;8.22;100.00
22653;BME280;11493;43.344;26.226;2023-04-28T01:07:00;99618.88;;;8.21;100.00
22653;BME280;11493;43.344;26.226;2023-04-28T01:09:28;99610.66;;;8.21;100.00
22653;BME280;11493;43.344;26.226;2023-04-28T01:11:55;99605.47;;;8.19;100.00
22653;BME280;11493;43.344;26.226;2023-04-28T01:14:45;99604.66;;;8.19;100.00
22653;BME280;11493;43.344;26.226;2023-04-28T01:17:12;99598.00;;;8.25;100.00
22653;BME280;11493;43.344;26.226;2023-04-28T01:19:39;99605.94;;;8.27;100.00
22653;BME280;11493;43.344;26.226;2023-04-28T01:22:07;99599.41;;;8.22;100.00
22653;BME280;11493;43.344;26.226;2023-04-28T01:24:36;99605.41;;;8.24;100.00
22653;BME280;11493;43.344;26.226;2023-04-28T01:27:05;99590.22;;;8.13;100.00
22653;BME280;11493;43.344;26.226;2023-04-28T01:29:32;99598.00;;;8.25;100.00
22653;BME280;11493;43.344;26.226;2023-04-28T01:31:59;99590.91;;;8.24;100.00
22653;BME280;11493;43.344;26.226;2023-04-28T01:34:26;99588.22;;;8.19;100.00
22653;BME280;11493;43.344;26.226;2023-04-28T01:36:53;99585.47;;;8.19;100.00
22653;BME280;11493;43.344;26.226;2023-04-28T01:39:20;99594.75;;;8.23;100.00
22653;BME280;11493;43.344;26.226;2023-04-28T01:41:47;99610.59;;;8.26;100.00
22653;BME280;11493;43.344;26.226;2023-04-28T01:44:14;99611.25;;;8.18;100.00
22653;BME280;11493;43.344;26.226;2023-04-28T01:46:41;99621.63;;;8.21;100.00
22653;BME280;11493;43.344;26.226;2023-04-28T01:49:08;99630.31;;;8.28;100.00
22653;BME280;11493;43.344;26.226;2023-04-28T01:51:35;99627.59;;;8.28;100.00
22653;BME280;11493;43.344;26.226;2023-04-28T01:54:03;99624.38;;;8.21;100.00
22653;BME280;11493;43.344;26.226;2023-04-28T01:56:30;99633.69;;;8.20;100.00
22653;BME280;11493;43.344;26.226;2023-04-28T01:58:58;99636.75;;;8.18;100.00
22653;BME280;11493;43.344;26.226;2023-04-28T02:01:26;99641.34;;;8.23;100.00
22653;BME280;11493;43.344;26.226;2023-04-28T02:03:53;99632.22;;;8.09;100.00
22653;BME280;11493;43.344;26.226;2023-04-28T02:06:22;99637.41;;;8.10;100.00
22653;BME280;11493;43.344;26.226;2023-04-28T02:08:49;99619.09;;;8.06;100.00
22653;BME280;11493;43.344;26.226;2023-04-28T02:11:16;99624.00;;;8.09;100.00
22653;BME280;11493;43.344;26.226;2023-04-28T02:13:43;99623.13;;;8.13;100.00
22653;BME280;11493;43.344;26.226;2023-04-28T02:16:10;99613.69;;;8.19;100.00
22653;BME280;11493;43.344;26.226;2023-04-28T02:18:37;99603.75;;;8.05;100.00
22653;BME280;11493;43.344;26.226;2023-04-28T02:21:11;99612.75;;;8.10;100.00
22653;BME280;11493;43.344;26.226;2023-04-28T02:23:39;99610.88;;;8.06;100.00
22653;BME280;11493;43.344;26.226;2023-04-28T02:26:06;99616.81;;;8.13;100.00
22653;BME280;11493;43.344;26.226;2023-04-28T02:28:33;99612.78;;;8.05;100.00
22653;BME280;11493;43.344;26.226;2023-04-28T02:31:04;99618.50;;;8.09;100.00
22653;BME280;11493;43.344;26.226;2023-04-28T02:33:32;99613.56;;;8.11;100.00
22653;BME280;11493;43.344;26.226;2023-04-28T02:35:59;99614.66;;;8.10;100.00
22653;BME280;11493;43.344;26.226;2023-04-28T02:38:27;99608.72;;;8.03;100.00
22653;BME280;11493;43.344;26.226;2023-04-28T02:41:01;99618.56;;;8.04;100.00
22653;BME280;11493;43.344;26.226;2023-04-28T02:43:28;99630.06;;;8.06;100.00
22653;BME280;11493;43.344;26.226;2023-04-28T02:45:55;99628.41;;;8.05;100.00
22653;BME280;11493;43.344;26.226;2023-04-28T02:48:24;99624.63;;;8.01;100.00
22653;BME280;11493;43.344;26.226;2023-04-28T02:50:52;99623.00;;;8.00;100.00
22653;BME280;11493;43.344;26.226;2023-04-28T02:53:20;99626.31;;;7.97;100.00
22653;BME280;11493;43.344;26.226;2023-04-28T02:55:48;99627.72;;;7.94;100.00
22653;BME280;11493;43.344;26.226;2023-04-28T02:58:15;99633.47;;;7.93;100.00
22653;BME280;11493;43.344;26.226;2023-04-28T03:00:45;99638.97;;;7.93;100.00
22653;BME280;11493;43.344;26.226;2023-04-28T03:03:12;99640.34;;;7.90;100.00
22653;BME280;11493;43.344;26.226;2023-04-28T03:05:39;99629.69;;;7.88;100.00
22653;BME280;11493;43.344;26.226;2023-04-28T03:08:07;99641.16;;;7.90;100.00
22653;BME280;11493;43.344;26.226;2023-04-28T03:10:34;99649.69;;;7.89;100.00
22653;BME280;11493;43.344;26.226;2023-04-28T03:13:02;99636.94;;;7.74;100.00
22653;BME280;11493;43.344;26.226;2023-04-28T03:15:29;99644.06;;;7.75;100.00
22653;BME280;11493;43.344;26.226;2023-04-28T03:17:56;99663.75;;;7.77;100.00
22653;BME280;11493;43.344;26.226;2023-04-28T03:20:23;99641.47;;;7.60;100.00
22653;BME280;11493;43.344;26.226;2023-04-28T03:22:50;99650.72;;;7.64;100.00
22653;BME280;11493;43.344;26.226;2023-04-28T03:25:17;99665.78;;;7.67;100.00
22653;BME280;11493;43.344;26.226;2023-04-28T03:27:47;99665.56;;;7.58;100.00
22653;BME280;11493;43.344;26.226;2023-04-28T03:30:14;99667.75;;;7.61;100.00
22653;BME280;11493;43.344;26.226;2023-04-28T03:32:42;99663.97;;;7.52;100.00
22653;BME280;11493;43.344;26.226;2023-04-28T03:35:09;99670.59;;;7.46;100.00
22653;BME280;11493;43.344;26.226;2023-04-28T03:37:38;99681.63;;;7.41;100.00
22653;BME280;11493;43.344;26.226;2023-04-28T03:40:05;99687.09;;;7.41;100.00
22653;BME280;11493;43.344;26.226;2023-04-28T03:42:53;99690.94;;;7.40;100.00
22653;BME280;11493;43.344;26.226;2023-04-28T03:45:29;99693.06;;;7.43;100.00
22653;BME280;11493;43.344;26.226;2023-04-28T03:47:57;99683.25;;;7.42;100.00
22653;BME280;11493;43.344;26.226;2023-04-28T03:50:24;99691.88;;;7.54;100.00
22653;BME280;11493;43.344;26.226;2023-04-28T03:52:53;99687.19;;;7.59;100.00
22653;BME280;11493;43.344;26.226;2023-04-28T03:55:21;99693.44;;;7.65;100.00
22653;BME280;11493;43.344;26.226;2023-04-28T03:57:49;99701.53;;;7.80;100.00
22653;BME280;11493;43.344;26.226;2023-04-28T04:00:17;99714.41;;;7.80;100.00
22653;BME280;11493;43.344;26.226;2023-04-28T04:02:46;99722.75;;;7.99;100.00
22653;BME280;11493;43.344;26.226;2023-04-28T04:05:14;99722.13;;;8.07;100.00
22653;BME280;11493;43.344;26.226;2023-04-28T04:07:42;99721.59;;;8.05;100.00
22653;BME280;11493;43.344;26.226;2023-04-28T04:10:09;99729.81;;;8.05;100.00
22653;BME280;11493;43.344;26.226;2023-04-28T04:12:39;99727.84;;;8.10;100.00
22653;BME280;11493;43.344;26.226;2023-04-28T04:15:06;99724.78;;;8.17;100.00
22653;BME280;11493;43.344;26.226;2023-04-28T04:17:34;99723.53;;;8.28;100.00
22653;BME280;11493;43.344;26.226;2023-04-28T04:20:01;99728.69;;;8.35;100.00
22653;BME280;11493;43.344;26.226;2023-04-28T04:22:28;99735.47;;;8.42;100.00
22653;BME280;11493;43.344;26.226;2023-04-28T04:24:55;99731.53;;;8.53;100.00
22653;BME280;11493;43.344;26.226;2023-04-28T04:27:24;99726.03;;;8.53;100.00
22653;BME280;11493;43.344;26.226;2023-04-28T04:29:51;99734.84;;;8.50;100.00
22653;BME280;11493;43.344;26.226;2023-04-28T04:32:19;99731.06;;;8.46;100.00
22653;BME280;11493;43.344;26.226;2023-04-28T04:34:46;99736.88;;;8.40;100.00
22653;BME280;11493;43.344;26.226;2023-04-28T04:37:13;99740.38;;;8.45;100.00
22653;BME280;11493;43.344;26.226;2023-04-28T04:39:53;99739.47;;;8.55;100.00
22653;BME280;11493;43.344;26.226;2023-04-28T04:42:20;99739.09;;;8.62;100.00
22653;BME280;11493;43.344;26.226;2023-04-28T04:45:06;99748.91;;;8.68;100.00
22653;BME280;11493;43.344;26.226;2023-04-28T04:47:34;99753.19;;;8.79;100.00
22653;BME280;11493;43.344;26.226;2023-04-28T04:50:01;99739.47;;;8.79;100.00
22653;BME280;11493;43.344;26.226;2023-04-28T04:52:28;99753.66;;;8.86;100.00
22653;BME280;11493;43.344;26.226;2023-04-28T04:54:55;99753.78;;;8.95;100.00
22653;BME280;11493;43.344;26.226;2023-04-28T04:57:23;99752.25;;;9.07;100.00
22653;BME280;11493;43.344;26.226;2023-04-28T05:00:13;99764.50;;;9.15;100.00
22653;BME280;11493;43.344;26.226;2023-04-28T05:02:43;99763.03;;;9.22;100.00
22653;BME280;11493;43.344;26.226;2023-04-28T05:05:11;99764.59;;;9.29;100.00
22653;BME280;11493;43.344;26.226;2023-04-28T05:08:02;99767.94;;;9.26;100.00
22653;BME280;11493;43.344;26.226;2023-04-28T05:10:29;99766.31;;;9.25;100.00
22653;BME280;11493;43.344;26.226;2023-04-28T05:12:57;99767.63;;;9.27;100.00
22653;BME280;11493;43.344;26.226;2023-04-28T05:15:24;99768.53;;;9.41;100.00
22653;BME280;11493;43.344;26.226;2023-04-28T05:18:10;99775.91;;;9.46;100.00
22653;BME280;11493;43.344;26.226;2023-04-28T05:20:39;99772.94;;;9.61;100.00
22653;BME280;11493;43.344;26.226;2023-04-28T05:23:07;99776.59;;;9.70;100.00
22653;BME280;11493;43.344;26.226;2023-04-28T05:25:34;99777.56;;;9.79;100.00
22653;BME280;11493;43.344;26.226;2023-04-28T05:28:01;99777.94;;;9.92;100.00
22653;BME280;11493;43.344;26.226;2023-04-28T05:30:33;99798.72;;;9.98;100.00
22653;BME280;11493;43.344;26.226;2023-04-28T05:33:00;99786.75;;;10.07;100.00
22653;BME280;11493;43.344;26.226;2023-04-28T05:35:28;99803.38;;;10.16;100.00
22653;BME280;11493;43.344;26.226;2023-04-28T05:37:57;99803.84;;;10.23;99.44
22653;BME280;11493;43.344;26.226;2023-04-28T05:40:24;99808.75;;;10.26;99.00
22653;BME280;11493;43.344;26.226;2023-04-28T05:42:54;99813.66;;;10.43;99.26
22653;BME280;11493;43.344;26.226;2023-04-28T05:45:21;99804.50;;;10.47;97.96
22653;BME280;11493;43.344;26.226;2023-04-28T05:47:48;99807.16;;;10.52;94.76
22653;BME280;11493;43.344;26.226;2023-04-28T05:50:15;99814.44;;;10.76;93.83
22653;BME280;11493;43.344;26.226;2023-04-28T05:52:42;99819.34;;;10.93;91.95
22653;BME280;11493;43.344;26.226;2023-04-28T05:55:09;99818.44;;;10.97;87.29
22653;BME280;11493;43.344;26.226;2023-04-28T05:57:37;99824.13;;;11.14;86.84
22653;BME280;11493;43.344;26.226;2023-04-28T06:00:18;99822.06;;;11.20;87.79
22653;BME280;11493;43.344;26.226;2023-04-28T06:02:45;99815.25;;;11.17;87.86
22653;BME280;11493;43.344;26.226;2023-04-28T06:05:12;99827.47;;;11.39;86.85
22653;BME280;11493;43.344;26.226;2023-04-28T06:07:41;99829.09;;;11.53;85.28
22653;BME280;11493;43.344;26.226;2023-04-28T06:10:08;99835.19;;;11.64;84.26
22653;BME280;11493;43.344;26.226;2023-04-28T06:12:36;99825.81;;;11.65;82.52
22653;BME280;11493;43.344;26.226;2023-04-28T06:15:04;99831.19;;;11.70;81.11
22653;BME280;11493;43.344;26.226;2023-04-28T06:17:32;99829.38;;;11.79;80.42
22653;BME280;11493;43.344;26.226;2023-04-28T06:20:00;99827.00;;;11.87;78.85
22653;BME280;11493;43.344;26.226;2023-04-28T06:22:27;99836.25;;;11.91;76.06
22653;BME280;11493;43.344;26.226;2023-04-28T06:24:54;99833.50;;;11.91;71.54
22653;BME280;11493;43.344;26.226;2023-04-28T06:27:28;99815.59;;;11.79;70.91
22653;BME280;11493;43.344;26.226;2023-04-28T06:29:58;99827.56;;;11.97;70.72
22653;BME280;11493;43.344;26.226;2023-04-28T06:32:25;99824.78;;;11.97;68.94
22653;BME280;11493;43.344;26.226;2023-04-28T06:34:52;99824.13;;;12.14;72.01
22653;BME280;11493;43.344;26.226;2023-04-28T06:37:22;99834.47;;;12.08;71.00
22653;BME280;11493;43.344;26.226;2023-04-28T06:39:49;99842.22;;;12.06;69.11
22653;BME280;11493;43.344;26.226;2023-04-28T06:42:16;99828.44;;;12.06;65.85
22653;BME280;11493;43.344;26.226;2023-04-28T06:44:51;99832.16;;;12.24;64.02
22653;BME280;11493;43.344;26.226;2023-04-28T06:47:19;99841.31;;;12.33;63.87
22653;BME280;11493;43.344;26.226;2023-04-28T06:49:46;99824.31;;;12.40;64.43
22653;BME280;11493;43.344;26.226;2023-04-28T06:52:15;99841.81;;;12.35;59.80
22653;BME280;11493;43.344;26.226;2023-04-28T06:54:42;99845.19;;;12.55;58.71
22653;BME280;11493;43.344;26.226;2023-04-28T06:57:09;99834.66;;;12.57;57.82
22653;BME280;11493;43.344;26.226;2023-04-28T06:59:36;99824.63;;;12.38;57.80
22653;BME280;11493;43.344;26.226;2023-04-28T07:02:04;99830.75;;;12.58;58.97
22653;BME280;11493;43.344;26.226;2023-04-28T07:04:31;99830.69;;;12.80;59.81
22653;BME280;11493;43.344;26.226;2023-04-28T07:06:58;99832.91;;;12.69;58.19
22653;BME280;11493;43.344;26.226;2023-04-28T07:09:25;99821.09;;;12.77;59.58
22653;BME280;11493;43.344;26.226;2023-04-28T07:11:52;99827.75;;;13.07;62.12
22653;BME280;11493;43.344;26.226;2023-04-28T07:14:19;99834.97;;;13.17;61.60
22653;BME280;11493;43.344;26.226;2023-04-28T07:16:47;99835.44;;;12.88;55.69
22653;BME280;11493;43.344;26.226;2023-04-28T07:19:14;99829.28;;;12.91;54.50
22653;BME280;11493;43.344;26.226;2023-04-28T07:21:41;99828.09;;;13.14;54.36
22653;BME280;11493;43.344;26.226;2023-04-28T07:24:08;99819.69;;;13.20;55.52
22653;BME280;11493;43.344;26.226;2023-04-28T07:26:35;99833.22;;;13.38;57.23
22653;BME280;11493;43.344;26.226;2023-04-28T07:29:02;99835.84;;;13.35;56.05
22653;BME280;11493;43.344;26.226;2023-04-28T07:31:29;99824.72;;;13.18;56.60
22653;BME280;11493;43.344;26.226;2023-04-28T07:33:57;99841.78;;;12.89;54.75
22653;BME280;11493;43.344;26.226;2023-04-28T07:36:25;99829.03;;;12.70;55.29
22653;BME280;11493;43.344;26.226;2023-04-28T07:38:53;99833.09;;;12.73;54.00
22653;BME280;11493;43.344;26.226;2023-04-28T07:41:20;99830.38;;;12.81;52.02
22653;BME280;11493;43.344;26.226;2023-04-28T07:43:47;99830.16;;;13.00;53.50
22653;BME280;11493;43.344;26.226;2023-04-28T07:46:14;99823.91;;;12.86;53.19
22653;BME280;11493;43.344;26.226;2023-04-28T07:48:41;99821.69;;;12.66;53.45
22653;BME280;11493;43.344;26.226;2023-04-28T07:51:08;99817.22;;;12.78;54.63
22653;BME280;11493;43.344;26.226;2023-04-28T07:53:35;99822.63;;;12.53;54.07
22653;BME280;11493;43.344;26.226;2023-04-28T07:56:02;99814.59;;;12.42;54.53
22653;BME280;11493;43.344;26.226;2023-04-28T07:58:30;99819.66;;;12.80;54.01
22653;BME280;11493;43.344;26.226;2023-04-28T08:00:57;99813.28;;;13.10;54.43
22653;BME280;11493;43.344;26.226;2023-04-28T08:03:24;99803.50;;;13.04;53.29
22653;BME280;11493;43.344;26.226;2023-04-28T08:05:51;99803.09;;;13.20;51.92
22653;BME280;11493;43.344;26.226;2023-04-28T08:08:18;99803.47;;;13.27;52.75
22653;BME280;11493;43.344;26.226;2023-04-28T08:10:45;99806.72;;;13.46;54.76
22653;BME280;11493;43.344;26.226;2023-04-28T08:13:12;99801.03;;;13.34;50.92
22653;BME280;11493;43.344;26.226;2023-04-28T08:15:39;99796.31;;;13.26;49.48
22653;BME280;11493;43.344;26.226;2023-04-28T08:18:06;99782.84;;;13.50;48.79
22653;BME280;11493;43.344;26.226;2023-04-28T08:20:34;99802.38;;;13.79;49.68
22653;BME280;11493;43.344;26.226;2023-04-28T08:23:01;99808.25;;;13.87;48.73
22653;BME280;11493;43.344;26.226;2023-04-28T08:25:28;99807.91;;;13.71;47.84
22653;BME280;11493;43.344;26.226;2023-04-28T08:27:55;99807.06;;;13.53;47.26
22653;BME280;11493;43.344;26.226;2023-04-28T08:30:23;99800.41;;;13.63;49.04
22653;BME280;11493;43.344;26.226;2023-04-28T08:32:50;99792.25;;;13.40;47.46
22653;BME280;11493;43.344;26.226;2023-04-28T08:35:17;99809.53;;;13.80;48.28
22653;BME280;11493;43.344;26.226;2023-04-28T08:37:45;99798.31;;;13.86;46.70
22653;BME280;11493;43.344;26.226;2023-04-28T08:40:15;99796.22;;;14.08;48.18
22653;BME280;11493;43.344;26.226;2023-04-28T08:42:43;99795.81;;;13.41;47.47
22653;BME280;11493;43.344;26.226;2023-04-28T08:45:14;99796.44;;;13.21;47.33
22653;BME280;11493;43.344;26.226;2023-04-28T08:47:42;99793.88;;;13.50;48.24
22653;BME280;11493;43.344;26.226;2023-04-28T08:50:13;99775.69;;;13.49;47.29
22653;BME280;11493;43.344;26.226;2023-04-28T08:52:41;99784.47;;;13.68;46.83
22653;BME280;11493;43.344;26.226;2023-04-28T08:55:10;99793.94;;;13.93;46.84
22653;BME280;11493;43.344;26.226;2023-04-28T08:57:42;99784.00;;;14.01;45.97
22653;BME280;11493;43.344;26.226;2023-04-28T09:00:13;99781.22;;;13.75;44.78
22653;BME280;11493;43.344;26.226;2023-04-28T09:02:40;99767.38;;;13.49;47.69
22653;BME280;11493;43.344;26.226;2023-04-28T09:05:12;99780.72;;;13.56;47.69
22653;BME280;11493;43.344;26.226;2023-04-28T09:07:40;99776.00;;;13.56;46.29
22653;BME280;11493;43.344;26.226;2023-04-28T09:10:20;99779.59;;;13.91;47.55
22653;BME280;11493;43.344;26.226;2023-04-28T09:12:50;99772.94;;;14.09;45.38
22653;BME280;11493;43.344;26.226;2023-04-28T09:15:28;99777.31;;;13.67;45.38
22653;BME280;11493;43.344;26.226;2023-04-28T09:17:59;99764.31;;;13.94;45.71
22653;BME280;11493;43.344;26.226;2023-04-28T09:20:28;99763.00;;;14.08;46.50
22653;BME280;11493;43.344;26.226;2023-04-28T09:26:16;99761.56;;;13.76;42.00
22653;BME280;11493;43.344;26.226;2023-04-28T09:28:43;99757.66;;;13.95;43.90
22653;BME280;11493;43.344;26.226;2023-04-28T09:31:24;99766.25;;;14.02;44.99
22653;BME280;11493;43.344;26.226;2023-04-28T09:33:58;99759.19;;;14.30;44.91
22653;BME280;11493;43.344;26.226;2023-04-28T09:36:26;99762.09;;;14.51;47.15
22653;BME280;11493;43.344;26.226;2023-04-28T09:38:59;99760.00;;;14.86;43.88
22653;BME280;11493;43.344;26.226;2023-04-28T09:44:16;99759.44;;;14.72;42.38
22653;BME280;11493;43.344;26.226;2023-04-28T09:46:50;99743.25;;;14.27;41.65
22653;BME280;11493;43.344;26.226;2023-04-28T09:49:17;99744.50;;;14.56;43.24
22653;BME280;11493;43.344;26.226;2023-04-28T09:51:44;99745.59;;;14.72;44.40
22653;BME280;11493;43.344;26.226;2023-04-28T09:54:12;99756.88;;;14.58;42.51
22653;BME280;11493;43.344;26.226;2023-04-28T09:56:40;99742.81;;;14.72;44.92
22653;BME280;11493;43.344;26.226;2023-04-28T09:59:10;99743.19;;;14.91;43.59
22653;BME280;11493;43.344;26.226;2023-04-28T10:01:39;99735.41;;;14.46;43.21
22653;BME280;11493;43.344;26.226;2023-04-28T10:04:07;99735.91;;;14.31;43.75
22653;BME280;11493;43.344;26.226;2023-04-28T10:06:38;99741.06;;;14.59;44.11
22653;BME280;11493;43.344;26.226;2023-04-28T10:09:06;99733.56;;;14.59;41.84
22653;BME280;11493;43.344;26.226;2023-04-28T10:11:34;99732.88;;;15.00;42.13
22653;BME280;11493;43.344;26.226;2023-04-28T10:14:01;99723.41;;;15.31;42.78
22653;BME280;11493;43.344;26.226;2023-04-28T10:16:30;99727.81;;;15.32;40.89
22653;BME280;11493;43.344;26.226;2023-04-28T10:19:00;99732.28;;;14.86;42.15
22653;BME280;11493;43.344;26.226;2023-04-28T10:21:33;99736.94;;;15.03;41.96
22653;BME280;11493;43.344;26.226;2023-04-28T10:29:25;99730.03;;;15.38;40.67
22653;BME280;11493;43.344;26.226;2023-04-28T10:32:14;99728.34;;;15.46;41.94
22653;BME280;11493;43.344;26.226;2023-04-28T10:40:42;99717.41;;;15.50;42.47
22653;BME280;11493;43.344;26.226;2023-04-28T10:56:20;99704.13;;;15.34;40.45
22653;BME280;11493;43.344;26.226;2023-04-28T10:58:56;99704.09;;;15.13;44.74
22653;BME280;11493;43.344;26.226;2023-04-28T11:01:24;99708.94;;;15.46;43.05
22653;BME280;11493;43.344;26.226;2023-04-28T11:04:07;99702.09;;;15.64;41.39
22653;BME280;11493;43.344;26.226;2023-04-28T11:06:53;99696.69;;;15.89;42.32
22653;BME280;11493;43.344;26.226;2023-04-28T11:14:37;99701.56;;;15.71;39.49
22653;BME280;11493;43.344;26.226;2023-04-28T11:17:09;99701.56;;;15.71;41.04
22653;BME280;11493;43.344;26.226;2023-04-28T11:19:40;99710.09;;;15.66;41.10
22653;BME280;11493;43.344;26.226;2023-04-28T11:22:15;99702.38;;;15.30;41.41
22653;BME280;11493;43.344;26.226;2023-04-28T11:25:03;99699.59;;;15.30;40.44
22653;BME280;11493;43.344;26.226;2023-04-28T11:27:32;99697.69;;;15.84;39.94
22653;BME280;11493;43.344;26.226;2023-04-28T11:29:59;99680.72;;;15.86;40.73
22653;BME280;11493;43.344;26.226;2023-04-28T11:32:32;99694.78;;;15.81;40.96
22653;BME280;11493;43.344;26.226;2023-04-28T11:34:59;99706.66;;;14.98;41.41
22653;BME280;11493;43.344;26.226;2023-04-28T11:37:26;99712.16;;;14.77;42.17
22653;BME280;11493;43.344;26.226;2023-04-28T11:39:53;99709.38;;;14.77;41.05
22653;BME280;11493;43.344;26.226;2023-04-28T11:42:20;99669.59;;;14.82;42.22
22653;BME280;11493;43.344;26.226;2023-04-28T11:44:52;99699.63;;;15.00;43.22
22653;BME280;11493;43.344;26.226;2023-04-28T11:47:32;99713.38;;;14.88;41.88
22653;BME280;11493;43.344;26.226;2023-04-28T11:50:00;99705.81;;;14.76;42.01
22653;BME280;11493;43.344;26.226;2023-04-28T11:52:29;99702.78;;;14.90;43.25
22653;BME280;11493;43.344;26.226;2023-04-28T11:54:57;99694.88;;;14.80;43.75
22653;BME280;11493;43.344;26.226;2023-04-28T11:57:26;99697.78;;;14.84;43.87
22653;BME280;11493;43.344;26.226;2023-04-28T12:00:13;99692.13;;;15.01;44.15
22653;BME280;11493;43.344;26.226;2023-04-28T12:02:45;99693.34;;;15.12;42.19
22653;BME280;11493;43.344;26.226;2023-04-28T12:05:12;99691.22;;;14.88;41.87
22653;BME280;11493;43.344;26.226;2023-04-28T12:07:43;99694.88;;;14.80;42.17
22653;BME280;11493;43.344;26.226;2023-04-28T12:10:12;99689.47;;;14.84;43.51
22653;BME280;11493;43.344;26.226;2023-04-28T12:12:41;99687.91;;;14.95;42.10
22653;BME280;11493;43.344;26.226;2023-04-28T12:15:17;99675.16;;;14.82;42.32
22653;BME280;11493;43.344;26.226;2023-04-28T12:18:09;99684.22;;;15.11;45.26
22653;BME280;11493;43.344;26.226;2023-04-28T12:20:37;99681.47;;;15.11;42.49
22653;BME280;11493;43.344;26.226;2023-04-28T12:23:05;99677.84;;;14.90;42.01
22653;BME280;11493;43.344;26.226;2023-04-28T12:25:42;99660.50;;;15.02;41.20
22653;BME280;11493;43.344;26.226;2023-04-28T12:28:09;99674.78;;;15.12;41.50
22653;BME280;11493;43.344;26.226;2023-04-28T12:30:36;99674.63;;;15.09;41.72
22653;BME280;11493;43.344;26.226;2023-04-28T12:33:24;99659.09;;;15.17;42.25
22653;BME280;11493;43.344;26.226;2023-04-28T12:35:52;99653.88;;;15.15;41.66
22653;BME280;11493;43.344;26.226;2023-04-28T12:38:24;99663.41;;;15.05;41.62
22653;BME280;11493;43.344;26.226;2023-04-28T12:40:52;99660.16;;;14.83;41.64
22653;BME280;11493;43.344;26.226;2023-04-28T12:43:19;99646.31;;;14.83;41.54
22653;BME280;11493;43.344;26.226;2023-04-28T12:45:49;99659.56;;;14.68;43.83
22653;BME280;11493;43.344;26.226;2023-04-28T12:48:16;99655.03;;;14.64;42.55
22653;BME280;11493;43.344;26.226;2023-04-28T12:50:44;99667.81;;;14.48;42.51
22653;BME280;11493;43.344;26.226;2023-04-28T12:53:11;99649.88;;;14.83;42.16
22653;BME280;11493;43.344;26.226;2023-04-28T12:55:38;99652.91;;;14.69;43.32
22653;BME280;11493;43.344;26.226;2023-04-28T12:58:06;99654.59;;;14.53;44.06
22653;BME280;11493;43.344;26.226;2023-04-28T13:00:33;99649.31;;;14.69;43.38
22653;BME280;11493;43.344;26.226;2023-04-28T13:03:00;99647.03;;;14.71;43.23
22653;BME280;11493;43.344;26.226;2023-04-28T13:05:27;99639.94;;;14.53;43.64
22653;BME280;11493;43.344;26.226;2023-04-28T13:07:54;99639.19;;;14.73;43.64
22653;BME280;11493;43.344;26.226;2023-04-28T13:10:22;99632.91;;;15.05;44.79
22653;BME280;11493;43.344;26.226;2023-04-28T13:12:49;99632.03;;;15.34;43.05
22653;BME280;11493;43.344;26.226;2023-04-28T13:15:16;99635.91;;;15.42;44.42
22653;BME280;11493;43.344;26.226;2023-04-28T13:17:43;99633.38;;;15.49;43.96
22653;BME280;11493;43.344;26.226;2023-04-28T13:20:12;99626.09;;;15.24;42.70
22653;BME280;11493;43.344;26.226;2023-04-28T13:22:39;99634.28;;;15.20;43.07
22653;BME280;11493;43.344;26.226;2023-04-28T13:25:07;99625.63;;;15.22;43.09
22653;BME280;11493;43.344;26.226;2023-04-28T13:27:35;99625.41;;;15.27;42.84
22653;BME280;11493;43.344;26.226;2023-04-28T13:30:04;99623.94;;;15.29;42.52
22653;BME280;11493;43.344;26.226;2023-04-28T13:32:31;99620.00;;;14.89;43.75
22653;BME280;11493;43.344;26.226;2023-04-28T13:34:58;99613.53;;;14.85;44.37